createdAt,value
2022-09-26T00:01:26.576Z,8.70
2022-09-26T00:03:55.912Z,8.70
2022-09-26T00:06:23.652Z,8.70
2022-09-26T00:08:51.206Z,8.70
2022-09-26T00:11:25.473Z,8.60
2022-09-26T00:13:55.673Z,8.60
2022-09-26T00:16:23.469Z,8.50
2022-09-26T00:18:53.587Z,8.50
2022-09-26T00:21:24.888Z,8.50
2022-09-26T00:23:52.402Z,8.40
2022-09-26T00:26:21.671Z,8.50
2022-09-26T00:28:48.987Z,8.50
2022-09-26T00:31:18.861Z,8.50
2022-09-26T00:33:47.050Z,8.50
2022-09-26T00:36:13.773Z,8.50
2022-09-26T00:38:40.742Z,8.40
2022-09-26T00:41:08.849Z,8.40
2022-09-26T00:43:43.604Z,8.30
2022-09-26T00:46:32.346Z,8.30
2022-09-26T00:49:06.767Z,8.20
2022-09-26T00:51:39.199Z,8.20
2022-09-26T00:54:09.690Z,8.20
2022-09-26T00:56:41.939Z,8.20
2022-09-26T00:59:31.330Z,8.20
2022-09-26T01:02:00.121Z,8.30
2022-09-26T01:04:29.073Z,8.30
2022-09-26T01:06:57.845Z,8.30
2022-09-26T01:09:25.949Z,8.20
2022-09-26T01:11:53.818Z,8.20
2022-09-26T01:14:21.632Z,8.20
2022-09-26T01:16:53.942Z,8.20
2022-09-26T01:19:41.244Z,8.20
2022-09-26T01:22:18.592Z,8.10
2022-09-26T01:25:23.676Z,8.10
2022-09-26T01:27:56.350Z,8.10
2022-09-26T01:30:28.210Z,8.10
2022-09-26T01:33:21.681Z,8.10
2022-09-26T01:36:22.614Z,8.20
2022-09-26T01:38:52.543Z,8.20
2022-09-26T01:41:49.792Z,8.20
2022-09-26T01:44:57.920Z,8.20
2022-09-26T01:47:39.399Z,8.20
2022-09-26T01:50:12.579Z,8.30
2022-09-26T01:53:19.821Z,8.30
2022-09-26T01:56:12.884Z,8.30
2022-09-26T01:58:46.054Z,8.30
2022-09-26T02:01:16.145Z,8.30
2022-09-26T02:03:53.012Z,8.30
2022-09-26T02:06:47.844Z,8.30
2022-09-26T02:09:19.523Z,8.30
2022-09-26T02:11:49.277Z,8.30
2022-09-26T02:14:31.928Z,8.30
2022-09-26T02:17:22.881Z,8.20
2022-09-26T02:20:00.800Z,8.30
2022-09-26T02:22:34.400Z,8.30
2022-09-26T02:25:03.016Z,8.40
2022-09-26T02:27:30.187Z,8.30
2022-09-26T02:29:58.666Z,8.30
2022-09-26T02:32:31.764Z,8.30
2022-09-26T02:35:00.517Z,8.30
2022-09-26T02:37:32.304Z,8.20
2022-09-26T02:40:01.072Z,8.20
2022-09-26T02:42:46.723Z,8.20
2022-09-26T02:45:35.487Z,8.20
2022-09-26T02:48:36.263Z,8.30
2022-09-26T02:51:28.415Z,8.30
2022-09-26T02:54:21.516Z,8.20
2022-09-26T02:57:25.630Z,8.20
2022-09-26T03:00:14.018Z,8.30
2022-09-26T03:03:07.987Z,8.30
2022-09-26T03:05:42.487Z,8.30
2022-09-26T03:08:16.297Z,8.30
2022-09-26T03:10:44.608Z,8.20
2022-09-26T03:13:13.253Z,8.20
2022-09-26T03:15:45.124Z,8.20
2022-09-26T03:18:17.020Z,8.20
2022-09-26T03:20:44.643Z,8.20
2022-09-26T03:23:11.833Z,8.20
2022-09-26T03:25:39.441Z,8.20
2022-09-26T03:28:12.939Z,8.20
2022-09-26T03:30:40.217Z,8.20
2022-09-26T03:33:27.490Z,8.20
2022-09-26T03:35:55.917Z,8.20
2022-09-26T03:38:22.871Z,8.20
2022-09-26T03:41:11.030Z,8.20
2022-09-26T03:43:39.632Z,8.20
2022-09-26T03:46:08.046Z,8.20
2022-09-26T03:48:35.327Z,8.20
2022-09-26T03:51:13.418Z,8.20
2022-09-26T03:53:42.962Z,8.30
2022-09-26T03:56:16.256Z,8.30
2022-09-26T03:58:44.225Z,8.30
2022-09-26T04:01:20.310Z,8.40
2022-09-26T04:03:50.922Z,8.30
2022-09-26T04:06:20.424Z,8.40
2022-09-26T04:08:50.463Z,8.40
2022-09-26T04:11:21.889Z,8.40
2022-09-26T04:13:52.779Z,8.40
2022-09-26T04:16:23.983Z,8.30
2022-09-26T04:19:01.134Z,8.30
2022-09-26T04:21:28.724Z,8.40
2022-09-26T04:23:56.470Z,8.30
2022-09-26T04:26:24.585Z,8.30
2022-09-26T04:28:55.707Z,8.30
2022-09-26T04:31:28.422Z,8.30
2022-09-26T04:34:05.091Z,8.40
2022-09-26T04:36:33.107Z,8.30
2022-09-26T04:39:00.715Z,8.30
2022-09-26T04:41:29.162Z,8.30
2022-09-26T04:43:58.003Z,8.30
2022-09-26T04:46:30.608Z,8.30
2022-09-26T04:49:00.843Z,8.30
2022-09-26T04:51:29.445Z,8.30
2022-09-26T04:53:56.709Z,8.20
2022-09-26T04:56:29.518Z,8.20
2022-09-26T04:58:58.205Z,8.30
2022-09-26T05:01:28.445Z,8.20
2022-09-26T05:04:15.600Z,8.20
2022-09-26T05:06:42.552Z,8.30
2022-09-26T05:09:20.716Z,8.30
2022-09-26T05:11:55.119Z,8.30
2022-09-26T05:14:22.078Z,8.20
2022-09-26T05:16:49.782Z,8.20
2022-09-26T05:19:17.488Z,8.20
2022-09-26T05:22:03.253Z,8.20
2022-09-26T05:24:48.840Z,8.20
2022-09-26T05:27:19.191Z,8.20
2022-09-26T05:29:46.281Z,8.20
2022-09-26T05:32:15.200Z,8.20
2022-09-26T05:34:42.584Z,8.30
2022-09-26T05:37:13.927Z,8.30
2022-09-26T05:40:00.150Z,8.30
2022-09-26T05:42:27.733Z,8.30
2022-09-26T05:44:54.600Z,8.30
2022-09-26T05:47:21.906Z,8.30
2022-09-26T05:49:48.929Z,8.40
2022-09-26T05:52:18.941Z,8.40
2022-09-26T05:54:45.933Z,8.40
2022-09-26T05:57:38.649Z,8.40
2022-09-26T06:00:06.289Z,8.40
2022-09-26T06:02:45.206Z,8.40
2022-09-26T06:05:24.588Z,8.40
2022-09-26T06:08:03.833Z,8.40
2022-09-26T06:10:38.898Z,8.50
2022-09-26T06:13:07.742Z,8.50
2022-09-26T06:15:52.930Z,8.50
2022-09-26T06:18:21.120Z,8.60
2022-09-26T06:20:48.166Z,8.60
2022-09-26T06:23:15.118Z,8.60
2022-09-26T06:25:44.741Z,8.60
2022-09-26T06:28:13.062Z,8.60
2022-09-26T06:30:40.152Z,8.60
2022-09-26T06:33:23.892Z,8.70
2022-09-26T06:36:11.974Z,8.70
2022-09-26T06:38:39.177Z,8.70
2022-09-26T06:41:16.578Z,8.70
2022-09-26T06:43:47.688Z,8.80
2022-09-26T06:46:49.998Z,8.80
2022-09-26T06:49:22.230Z,8.80
2022-09-26T06:52:02.916Z,8.80
2022-09-26T06:54:29.979Z,8.90
2022-09-26T06:56:56.971Z,8.90
2022-09-26T06:59:24.416Z,8.90
2022-09-26T07:02:00.366Z,8.90
2022-09-26T07:04:49.431Z,9.00
2022-09-26T07:07:19.828Z,9.10
2022-09-26T07:09:46.806Z,9.00
2022-09-26T07:12:37.649Z,9.00
2022-09-26T07:15:04.847Z,9.10
2022-09-26T07:17:32.727Z,9.10
2022-09-26T07:20:15.028Z,9.20
2022-09-26T07:23:16.180Z,9.20
2022-09-26T07:25:47.971Z,9.20
2022-09-26T07:28:15.342Z,9.30
2022-09-26T07:30:48.078Z,9.30
2022-09-26T07:33:40.267Z,9.30
2022-09-26T07:36:10.024Z,9.40
2022-09-26T07:38:37.430Z,9.40
2022-09-26T07:41:05.500Z,9.50
2022-09-26T07:46:39.376Z,9.60
2022-09-26T07:49:24.859Z,9.60
2022-09-26T07:51:56.568Z,9.60
2022-09-26T07:54:29.922Z,9.60
2022-09-26T07:57:17.097Z,9.60
2022-09-26T08:00:08.146Z,9.70
2022-09-26T08:02:42.841Z,9.70
2022-09-26T08:05:17.656Z,9.70
2022-09-26T08:07:44.593Z,9.70
2022-09-26T08:10:37.672Z,9.80
2022-09-26T08:13:23.184Z,9.80
2022-09-26T08:16:07.036Z,9.80
2022-09-26T08:18:39.128Z,9.90
2022-09-26T08:21:07.579Z,10.00
2022-09-26T08:23:34.790Z,10.00
2022-09-26T08:26:21.480Z,10.00
2022-09-26T08:28:51.492Z,10.10
2022-09-26T08:31:18.825Z,10.10
2022-09-26T08:33:47.745Z,10.10
2022-09-26T08:36:18.071Z,10.10
2022-09-26T08:38:57.255Z,10.10
2022-09-26T08:42:29.638Z,10.10
2022-09-26T08:45:42.103Z,10.20
2022-09-26T08:48:42.237Z,10.20
2022-09-26T08:51:35.925Z,10.20
2022-09-26T08:54:40.836Z,10.20
2022-09-26T08:57:29.129Z,10.20
2022-09-26T08:59:56.343Z,10.20
2022-09-26T09:02:37.311Z,10.20
2022-09-26T09:05:11.782Z,10.20
2022-09-26T09:07:42.754Z,10.30
2022-09-26T09:10:22.737Z,10.30
2022-09-26T09:13:05.974Z,10.30
2022-09-26T09:15:52.502Z,10.30
2022-09-26T09:18:39.141Z,10.30
2022-09-26T09:21:43.409Z,10.30
2022-09-26T09:24:45.466Z,10.40
2022-09-26T09:30:35.137Z,10.40
2022-09-26T09:33:26.202Z,10.50
2022-09-26T09:36:21.270Z,10.50
2022-09-26T09:39:31.188Z,10.50
2022-09-26T09:42:17.747Z,10.50
2022-09-26T09:44:55.433Z,10.60
2022-09-26T09:47:22.666Z,10.60
2022-09-26T09:49:51.641Z,10.60
2022-09-26T09:52:58.448Z,10.60
2022-09-26T09:56:07.014Z,10.60
2022-09-26T09:58:51.582Z,10.60
2022-09-26T10:01:35.599Z,10.70
2022-09-26T10:04:37.370Z,10.70
2022-09-26T10:07:05.525Z,10.70
2022-09-26T10:09:40.952Z,10.80
2022-09-26T10:12:32.963Z,10.70
2022-09-26T10:15:28.437Z,10.80
2022-09-26T10:18:24.678Z,10.80
2022-09-26T10:21:16.201Z,10.70
2022-09-26T10:23:46.964Z,10.70
2022-09-26T10:26:37.849Z,10.70
2022-09-26T10:29:21.531Z,10.70
2022-09-26T10:31:56.117Z,10.70
2022-09-26T10:34:30.553Z,10.70
2022-09-26T10:37:11.971Z,10.70
2022-09-26T10:39:58.168Z,10.70
2022-09-26T10:42:29.890Z,10.60
2022-09-26T10:45:14.152Z,10.70
2022-09-26T10:48:00.097Z,10.70
2022-09-26T10:50:51.541Z,10.70
2022-09-26T10:53:22.990Z,10.70
2022-09-26T10:56:14.968Z,10.70
2022-09-26T10:58:46.641Z,10.70
2022-09-26T11:01:26.506Z,10.60
2022-09-26T11:03:56.037Z,10.60
2022-09-26T11:06:34.877Z,10.60
2022-09-26T11:09:20.930Z,10.70
2022-09-26T11:12:29.237Z,10.70
2022-09-26T11:15:12.957Z,10.70
2022-09-26T11:17:45.348Z,10.80
2022-09-26T11:20:18.166Z,10.80
2022-09-26T11:23:08.882Z,10.90
2022-09-26T11:25:57.981Z,10.90
2022-09-26T11:28:32.611Z,10.80
2022-09-26T11:31:33.564Z,10.80
2022-09-26T11:34:28.863Z,10.80
2022-09-26T11:37:09.576Z,10.80
2022-09-26T11:39:54.647Z,10.80
2022-09-26T11:42:40.009Z,10.80
2022-09-26T11:45:20.409Z,10.80
2022-09-26T11:48:31.369Z,10.80
2022-09-26T11:51:59.063Z,10.80
2022-09-26T11:54:57.489Z,10.70
2022-09-26T11:57:35.273Z,10.70
2022-09-26T12:00:08.446Z,10.70
2022-09-26T12:03:05.522Z,10.70
2022-09-26T12:05:56.700Z,10.70
2022-09-26T12:08:51.701Z,10.70
2022-09-26T12:11:29.659Z,10.70
2022-09-26T12:14:01.585Z,10.60
2022-09-26T12:16:41.340Z,10.60
2022-09-26T12:19:20.310Z,10.60
2022-09-26T12:22:08.663Z,10.60
2022-09-26T12:25:19.308Z,10.60
2022-09-26T12:28:19.713Z,10.60
2022-09-26T12:31:05.313Z,10.60
2022-09-26T12:33:55.522Z,10.60
2022-09-26T12:36:47.545Z,10.60
2022-09-26T12:39:44.180Z,10.60
2022-09-26T12:42:31.761Z,10.70
2022-09-26T12:45:17.349Z,10.70
2022-09-26T12:48:17.715Z,10.70
2022-09-26T12:51:08.228Z,10.80
2022-09-26T12:54:00.082Z,10.80
2022-09-26T12:56:49.025Z,10.90
2022-09-26T12:59:52.020Z,10.90
2022-09-26T13:02:53.871Z,10.90
2022-09-26T13:05:53.808Z,11.00
2022-09-26T13:08:33.247Z,11.00
2022-09-26T13:11:11.840Z,11.00
2022-09-26T13:14:18.504Z,11.00
2022-09-26T13:17:22.021Z,11.00
2022-09-26T13:19:56.074Z,11.00
2022-09-26T13:22:37.134Z,11.10
2022-09-26T13:25:19.019Z,11.00
2022-09-26T13:27:51.678Z,11.10
2022-09-26T13:30:24.481Z,11.10
2022-09-26T13:33:07.659Z,11.10
2022-09-26T13:35:36.657Z,11.10
2022-09-26T13:38:41.158Z,11.10
2022-09-26T13:41:22.399Z,11.20
2022-09-26T13:44:06.287Z,11.20
2022-09-26T13:46:41.996Z,11.20
2022-09-26T13:49:17.925Z,11.20
2022-09-26T13:51:50.901Z,11.30
2022-09-26T13:54:27.312Z,11.30
2022-09-26T13:56:55.974Z,11.30
2022-09-26T13:59:38.219Z,11.40
2022-09-26T14:02:28.380Z,11.40
2022-09-26T14:05:01.487Z,11.40
2022-09-26T14:07:58.845Z,11.40
2022-09-26T14:10:32.033Z,11.40
2022-09-26T14:13:03.485Z,11.30
2022-09-26T14:15:48.733Z,11.30
2022-09-26T14:18:53.912Z,11.20
2022-09-26T14:21:22.676Z,11.30
2022-09-26T14:24:10.773Z,11.30
2022-09-26T14:26:44.709Z,11.30
2022-09-26T14:29:34.321Z,11.30
2022-09-26T14:32:08.109Z,11.30
2022-09-26T14:34:45.601Z,11.30
2022-09-26T14:37:42.250Z,11.40
2022-09-26T14:40:31.150Z,11.40
2022-09-26T14:43:13.184Z,11.40
2022-09-26T14:45:40.718Z,11.40
2022-09-26T14:48:15.762Z,11.40
2022-09-26T14:50:53.261Z,11.30
2022-09-26T14:53:24.922Z,11.30
2022-09-26T14:56:02.084Z,11.30
2022-09-26T14:58:31.772Z,11.40
2022-09-26T15:01:04.680Z,11.30
2022-09-26T15:03:34.596Z,11.30
2022-09-26T15:06:05.062Z,11.30
2022-09-26T15:08:39.218Z,11.30
2022-09-26T15:11:07.192Z,11.30
2022-09-26T15:13:39.881Z,11.30
2022-09-26T15:16:29.173Z,11.30
2022-09-26T15:19:06.800Z,11.40
2022-09-26T15:21:43.114Z,11.40
2022-09-26T15:24:36.198Z,11.40
2022-09-26T15:27:18.839Z,11.40
2022-09-26T15:29:50.744Z,11.40
2022-09-26T15:32:35.203Z,11.40
2022-09-26T15:35:04.415Z,11.40
2022-09-26T15:37:33.983Z,11.40
2022-09-26T15:40:19.879Z,11.40
2022-09-26T15:43:02.428Z,11.40
2022-09-26T15:45:55.474Z,11.40
2022-09-26T15:48:25.584Z,11.30
2022-09-26T15:51:00.680Z,11.40
2022-09-26T15:53:36.524Z,11.40
2022-09-26T15:56:10.606Z,11.30
2022-09-26T15:58:44.546Z,11.30
2022-09-26T16:01:19.144Z,11.40
2022-09-26T16:03:58.018Z,11.30
2022-09-26T16:06:41.858Z,11.40
2022-09-26T16:09:23.326Z,11.30
2022-09-26T16:11:56.720Z,11.30
2022-09-26T16:14:45.483Z,11.30
2022-09-26T16:17:36.174Z,11.30
2022-09-26T16:20:18.763Z,11.40
2022-09-26T16:22:54.700Z,11.40
2022-09-26T16:25:47.692Z,11.30
2022-09-26T16:28:20.708Z,11.40
2022-09-26T16:30:59.570Z,11.40
2022-09-26T16:33:30.956Z,11.40
2022-09-26T16:36:23.793Z,11.30
2022-09-26T16:39:02.870Z,11.40
2022-09-26T16:44:41.298Z,11.40
2022-09-26T16:47:41.367Z,11.40
2022-09-26T16:50:27.639Z,11.40
2022-09-26T16:52:56.468Z,11.40
2022-09-26T16:55:26.356Z,11.40
2022-09-26T16:57:58.807Z,11.40
2022-09-26T17:00:52.422Z,11.40
2022-09-26T17:03:30.218Z,11.50
2022-09-26T17:05:58.723Z,11.40
2022-09-26T17:08:27.989Z,11.40
2022-09-26T17:10:58.442Z,11.40
2022-09-26T17:13:27.416Z,11.40
2022-09-26T17:15:57.217Z,11.30
2022-09-26T17:18:29.562Z,11.30
2022-09-26T17:20:58.984Z,11.30
2022-09-26T17:23:42.522Z,11.30
2022-09-26T17:26:20.108Z,11.40
2022-09-26T17:28:47.644Z,11.30
2022-09-26T17:31:19.791Z,11.30
2022-09-26T17:33:51.650Z,11.30
2022-09-26T17:36:23.217Z,11.20
2022-09-26T17:38:51.055Z,11.20
2022-09-26T17:41:18.407Z,11.20
2022-09-26T17:43:45.266Z,11.10
2022-09-26T17:46:16.416Z,11.10
2022-09-26T17:48:44.729Z,11.10
2022-09-26T17:51:14.257Z,11.10
2022-09-26T17:53:50.042Z,11.20
2022-09-26T17:56:18.239Z,11.20
2022-09-26T17:58:47.164Z,11.10
2022-09-26T18:01:34.435Z,11.10
2022-09-26T18:04:06.325Z,11.10
2022-09-26T18:06:34.011Z,11.10
2022-09-26T18:09:05.826Z,11.10
2022-09-26T18:11:34.556Z,11.10
2022-09-26T18:14:04.206Z,11.10
2022-09-26T18:16:31.081Z,11.00
2022-09-26T18:18:58.910Z,11.00
2022-09-26T18:21:27.361Z,11.00
2022-09-26T18:24:01.042Z,11.00
2022-09-26T18:26:33.986Z,10.90
2022-09-26T18:29:07.574Z,11.00
2022-09-26T18:31:38.452Z,11.00
2022-09-26T18:34:20.022Z,11.00
2022-09-26T18:36:48.907Z,11.10
2022-09-26T18:39:15.947Z,11.10
2022-09-26T18:41:45.242Z,11.10
2022-09-26T18:44:16.887Z,11.00
2022-09-26T18:46:46.817Z,11.00
2022-09-26T18:49:14.308Z,11.10
2022-09-26T18:51:41.303Z,11.10
2022-09-26T18:54:16.427Z,11.00
2022-09-26T18:57:02.265Z,11.00
2022-09-26T18:59:32.221Z,11.00
2022-09-26T19:02:02.636Z,11.00
2022-09-26T19:04:33.458Z,10.90
2022-09-26T19:07:04.803Z,10.90
2022-09-26T19:09:34.267Z,10.90
2022-09-26T19:12:02.490Z,11.00
2022-09-26T19:14:30.344Z,10.90
2022-09-26T19:16:58.076Z,10.90
2022-09-26T19:19:28.530Z,11.00
2022-09-26T19:21:58.218Z,11.00
2022-09-26T19:24:37.815Z,11.00
2022-09-26T19:27:07.712Z,11.00
2022-09-26T19:30:12.857Z,11.00
2022-09-26T19:32:48.249Z,11.00
2022-09-26T19:35:21.983Z,10.90
2022-09-26T19:37:49.078Z,10.90
2022-09-26T19:40:18.168Z,10.90
2022-09-26T19:42:45.155Z,11.00
2022-09-26T19:45:13.532Z,11.00
2022-09-26T19:47:45.393Z,11.00
2022-09-26T19:50:28.667Z,11.00
2022-09-26T19:52:58.438Z,11.00
2022-09-26T19:55:28.349Z,11.00
2022-09-26T19:58:00.435Z,11.00
2022-09-26T20:00:27.290Z,11.00
2022-09-26T20:02:54.881Z,11.00
2022-09-26T20:05:26.480Z,11.00
2022-09-26T20:07:53.915Z,11.00
2022-09-26T20:10:25.211Z,11.00
2022-09-26T20:12:52.610Z,10.90
2022-09-26T20:15:22.998Z,10.90
2022-09-26T20:17:50.896Z,10.90
2022-09-26T20:20:21.977Z,10.90
2022-09-26T20:22:51.941Z,10.90
2022-09-26T20:25:32.662Z,10.80
2022-09-26T20:28:00.246Z,10.80
2022-09-26T20:30:45.771Z,10.90
2022-09-26T20:33:13.425Z,10.90
2022-09-26T20:35:47.308Z,10.80
2022-09-26T20:38:45.463Z,10.80
2022-09-26T20:41:30.207Z,10.90
2022-09-26T20:44:02.385Z,10.90
2022-09-26T20:46:36.473Z,10.90
2022-09-26T20:49:08.020Z,10.90
2022-09-26T20:51:35.467Z,10.90
2022-09-26T20:54:03.178Z,10.90
2022-09-26T20:56:30.096Z,11.00
2022-09-26T20:58:58.326Z,11.00
2022-09-26T21:01:26.547Z,11.00
2022-09-26T21:03:55.189Z,11.00
2022-09-26T21:06:26.694Z,11.00
2022-09-26T21:08:53.574Z,11.00
2022-09-26T21:11:21.839Z,11.00
2022-09-26T21:13:48.785Z,11.00
2022-09-26T21:16:18.318Z,11.00
2022-09-26T21:18:47.556Z,11.10
2022-09-26T21:21:23.517Z,11.10
2022-09-26T21:24:00.398Z,11.10
2022-09-26T21:26:28.561Z,11.10
2022-09-26T21:28:56.081Z,11.10
2022-09-26T21:31:30.654Z,11.10
2022-09-26T21:33:59.313Z,11.20
2022-09-26T21:36:34.660Z,11.20
2022-09-26T21:39:02.402Z,11.20
2022-09-26T21:41:29.902Z,11.20
2022-09-26T21:44:14.655Z,11.20
2022-09-26T21:46:41.479Z,11.20
2022-09-26T21:49:08.347Z,11.20
2022-09-26T21:51:36.329Z,11.10
2022-09-26T21:54:08.564Z,11.10
2022-09-26T21:56:43.960Z,11.20
2022-09-26T21:59:10.932Z,11.10
2022-09-26T22:01:37.842Z,11.10
2022-09-26T22:04:05.695Z,11.10
2022-09-26T22:06:33.539Z,11.10
2022-09-26T22:09:00.440Z,11.10
2022-09-26T22:11:27.278Z,11.10
2022-09-26T22:13:55.588Z,11.10
2022-09-26T22:16:22.385Z,11.10
2022-09-26T22:18:49.299Z,11.10
2022-09-26T22:21:16.190Z,11.10
2022-09-26T22:23:43.118Z,11.10
2022-09-26T22:26:10.120Z,11.10
2022-09-26T22:28:37.060Z,11.10
2022-09-26T22:31:05.238Z,11.10
2022-09-26T22:33:34.007Z,11.10
2022-09-26T22:36:01.135Z,11.10
2022-09-26T22:38:28.015Z,11.10
2022-09-26T22:40:57.145Z,11.10
2022-09-26T22:43:25.381Z,11.00
2022-09-26T22:45:52.515Z,11.00
2022-09-26T22:48:19.456Z,11.00
2022-09-26T22:50:46.370Z,11.10
2022-09-26T22:53:13.156Z,11.10
2022-09-26T22:55:40.026Z,11.10
2022-09-26T22:58:07.155Z,11.10
2022-09-26T23:00:34.111Z,11.10
2022-09-26T23:03:00.971Z,11.10
2022-09-26T23:05:27.796Z,11.10
2022-09-26T23:07:55.053Z,11.10
2022-09-26T23:10:22.296Z,11.00
2022-09-26T23:12:50.649Z,11.10
2022-09-26T23:15:18.308Z,11.10
2022-09-26T23:17:46.616Z,11.10
2022-09-26T23:20:13.382Z,11.00
2022-09-26T23:22:40.441Z,11.00
2022-09-26T23:25:08.704Z,11.00
2022-09-26T23:27:35.784Z,11.00
2022-09-26T23:30:02.749Z,11.00
2022-09-26T23:32:29.658Z,10.90
2022-09-26T23:34:56.506Z,10.90
2022-09-26T23:37:23.398Z,10.90
2022-09-26T23:39:50.560Z,10.90
2022-09-26T23:42:17.411Z,10.90
2022-09-26T23:44:44.235Z,10.90
2022-09-26T23:47:11.235Z,10.90
2022-09-26T23:49:38.162Z,10.90
2022-09-26T23:52:05.892Z,10.90
2022-09-26T23:54:33.560Z,10.90
2022-09-26T23:57:01.617Z,10.90
2022-09-26T23:59:28.427Z,10.90
